createdAt,value
2022-10-20T00:00:32.519Z,101358.40
2022-10-20T00:06:07.199Z,101362.60
2022-10-20T00:11:13.984Z,101371.60
2022-10-20T00:16:18.936Z,101365.60
2022-10-20T00:21:27.571Z,101373.20
2022-10-20T00:26:32.875Z,101367.20
2022-10-20T00:31:36.242Z,101360.40
2022-10-20T00:36:40.888Z,101361.80
2022-10-20T00:41:44.097Z,101366.40
2022-10-20T00:46:47.751Z,101359.20
2022-10-20T00:51:55.105Z,101369.00
2022-10-20T00:56:59.983Z,101369.20
2022-10-20T01:02:08.697Z,101371.60
2022-10-20T01:07:12.265Z,101369.20
2022-10-20T01:12:41.241Z,101368.60
2022-10-20T01:18:03.596Z,101369.00
2022-10-20T01:23:18.890Z,101363.20
2022-10-20T01:28:47.700Z,101354.60
2022-10-20T01:34:02.413Z,101348.60
2022-10-20T01:39:25.322Z,101347.80
2022-10-20T01:44:31.195Z,101351.20
2022-10-20T01:49:34.825Z,101348.40
2022-10-20T01:54:38.264Z,101351.40
2022-10-20T02:00:09.724Z,101349.40
2022-10-20T02:05:47.835Z,101337.00
2022-10-20T02:10:57.751Z,101328.20
2022-10-20T02:16:07.889Z,101332.00
2022-10-20T02:21:12.301Z,101328.20
2022-10-20T02:26:20.663Z,101328.20
2022-10-20T02:31:25.402Z,101328.80
2022-10-20T02:36:30.292Z,101322.40
2022-10-20T02:41:34.175Z,101318.20
2022-10-20T02:46:37.487Z,101320.60
2022-10-20T02:51:40.900Z,101326.80
2022-10-20T02:56:44.215Z,101315.40
2022-10-20T03:01:48.218Z,101320.00
2022-10-20T03:06:51.669Z,101322.00
2022-10-20T03:11:55.164Z,101327.80
2022-10-20T03:16:58.482Z,101343.80
2022-10-20T03:22:02.016Z,101342.20
2022-10-20T03:27:05.514Z,101349.60
2022-10-20T03:32:08.736Z,101347.60
2022-10-20T03:37:12.052Z,101356.40
2022-10-20T03:42:16.103Z,101344.00
2022-10-20T03:47:19.374Z,101352.00
2022-10-20T03:52:22.789Z,101349.20
2022-10-20T03:57:26.101Z,101351.60
2022-10-20T04:02:43.457Z,101354.40
2022-10-20T04:07:47.586Z,101351.60
2022-10-20T04:12:50.850Z,101349.60
2022-10-20T04:17:54.403Z,101345.20
2022-10-20T04:22:57.673Z,101348.60
2022-10-20T04:28:01.126Z,101347.60
2022-10-20T04:33:04.848Z,101352.40
2022-10-20T04:38:09.316Z,101352.40
2022-10-20T04:43:12.700Z,101354.60
2022-10-20T04:48:17.061Z,101361.00
2022-10-20T04:53:20.350Z,101362.60
2022-10-20T04:58:25.352Z,101357.00
2022-10-20T05:03:28.711Z,101356.20
2022-10-20T05:08:32.039Z,101358.80
2022-10-20T05:13:35.953Z,101359.60
2022-10-20T05:18:40.794Z,101366.60
2022-10-20T05:23:45.411Z,101364.00
2022-10-20T05:28:51.102Z,101362.80
2022-10-20T05:33:57.284Z,101368.80
2022-10-20T05:39:00.698Z,101367.40
2022-10-20T05:44:08.736Z,101372.60
2022-10-20T05:54:39.001Z,101376.40
2022-10-20T05:59:42.510Z,101382.80
2022-10-20T06:04:47.754Z,101386.20
2022-10-20T06:09:52.131Z,101385.00
2022-10-20T06:14:55.421Z,101389.20
2022-10-20T06:19:58.682Z,101389.40
2022-10-20T06:25:02.043Z,101396.00
2022-10-20T06:30:06.851Z,101390.60
2022-10-20T06:35:10.078Z,101401.00
2022-10-20T06:40:13.966Z,101403.00
2022-10-20T06:45:17.882Z,101405.80
2022-10-20T06:50:21.364Z,101416.20
2022-10-20T06:55:24.630Z,101413.60
2022-10-20T07:00:28.076Z,101417.20
2022-10-20T07:05:31.603Z,101425.20
2022-10-20T07:10:34.913Z,101429.60
2022-10-20T07:15:38.156Z,101430.20
2022-10-20T07:20:41.427Z,101433.40
2022-10-20T07:25:44.906Z,101449.00
2022-10-20T07:30:48.880Z,101448.40
2022-10-20T07:35:52.265Z,101448.60
2022-10-20T07:41:03.260Z,101453.00
2022-10-20T07:46:07.811Z,101457.00
2022-10-20T07:51:31.200Z,101455.20
2022-10-20T07:56:41.993Z,101462.80
2022-10-20T08:01:45.378Z,101457.60
2022-10-20T08:06:48.757Z,101464.20
2022-10-20T08:11:55.328Z,101463.20
2022-10-20T08:17:01.147Z,101460.00
2022-10-20T08:22:04.490Z,101461.00
2022-10-20T08:27:07.798Z,101464.00
2022-10-20T08:32:13.169Z,101463.00
2022-10-20T08:37:16.486Z,101460.80
2022-10-20T08:42:19.989Z,101465.00
2022-10-20T08:47:37.581Z,101466.60
2022-10-20T08:52:43.293Z,101461.60
2022-10-20T08:57:49.689Z,101453.40
2022-10-20T09:02:56.579Z,101455.20
2022-10-20T09:07:59.997Z,101464.80
2022-10-20T09:13:30.441Z,101462.60
2022-10-20T09:18:35.201Z,101466.00
2022-10-20T09:29:14.705Z,101471.60
2022-10-20T09:34:26.363Z,101475.00
2022-10-20T09:39:39.650Z,101469.60
2022-10-20T09:44:56.872Z,101469.00
2022-10-20T09:50:08.995Z,101468.00
2022-10-20T09:55:35.241Z,101465.60
2022-10-20T10:00:47.206Z,101459.40
2022-10-20T10:06:00.909Z,101475.00
2022-10-20T10:11:18.862Z,101481.00
2022-10-20T10:16:24.801Z,101476.00
2022-10-20T10:21:41.979Z,101473.80
2022-10-20T10:26:45.794Z,101474.40
2022-10-20T10:32:01.096Z,101470.40
2022-10-20T10:37:04.819Z,101472.80
2022-10-20T10:42:46.021Z,101463.40
2022-10-20T10:48:44.005Z,101456.60
2022-10-20T10:54:33.600Z,101449.60
2022-10-20T10:59:43.162Z,101439.60
2022-10-20T11:04:58.204Z,101437.60
2022-10-20T11:10:10.982Z,101429.60
2022-10-20T11:15:33.240Z,101430.60
2022-10-20T11:20:55.284Z,101422.00
2022-10-20T11:26:29.254Z,101409.20
2022-10-20T11:31:55.567Z,101399.80
2022-10-20T11:37:13.324Z,101396.60
2022-10-20T11:42:31.940Z,101395.40
2022-10-20T11:47:41.907Z,101396.80
2022-10-20T11:53:28.278Z,101388.60
2022-10-20T11:58:43.740Z,101379.40
2022-10-20T12:04:05.729Z,101380.00
2022-10-20T12:09:48.121Z,101372.60
2022-10-20T12:15:01.196Z,101364.00
2022-10-20T12:20:22.976Z,101361.00
2022-10-20T12:25:26.456Z,101372.40
2022-10-20T12:30:38.888Z,101367.20
2022-10-20T12:36:14.331Z,101366.00
2022-10-20T12:41:35.184Z,101367.60
2022-10-20T12:46:51.997Z,101365.80
2022-10-20T12:51:59.150Z,101356.00
2022-10-20T12:57:26.686Z,101352.60
2022-10-20T13:02:33.151Z,101351.60
2022-10-20T13:07:48.767Z,101349.00
2022-10-20T13:12:54.841Z,101352.40
2022-10-20T13:18:14.029Z,101345.00
2022-10-20T13:23:23.994Z,101343.00
2022-10-20T13:28:32.840Z,101339.60
2022-10-20T13:34:03.330Z,101333.60
2022-10-20T13:39:52.543Z,101330.40
2022-10-20T13:45:25.687Z,101323.00
2022-10-20T13:50:40.880Z,101316.80
2022-10-20T13:56:08.586Z,101325.80
2022-10-20T14:01:23.536Z,101316.80
2022-10-20T14:06:36.783Z,101315.40
2022-10-20T14:11:41.906Z,101307.60
2022-10-20T14:16:56.205Z,101307.80
2022-10-20T14:22:23.786Z,101303.80
2022-10-20T14:27:31.714Z,101304.00
2022-10-20T14:32:40.897Z,101302.00
2022-10-20T14:37:52.770Z,101303.80
2022-10-20T14:43:15.445Z,101305.00
2022-10-20T14:48:18.950Z,101298.60
2022-10-20T14:53:33.623Z,101299.20
2022-10-20T14:58:57.007Z,101291.40
2022-10-20T15:04:24.785Z,101280.60
2022-10-20T15:09:35.073Z,101279.40
2022-10-20T15:14:39.712Z,101278.00
2022-10-20T15:19:43.282Z,101275.60
2022-10-20T15:24:50.194Z,101274.00
2022-10-20T15:29:53.684Z,101271.00
2022-10-20T15:34:57.126Z,101259.80
2022-10-20T15:40:00.703Z,101250.20
2022-10-20T15:45:21.816Z,101247.60
2022-10-20T15:50:25.703Z,101251.20
2022-10-20T15:55:33.729Z,101236.20
2022-10-20T16:00:38.368Z,101245.20
2022-10-20T16:05:41.899Z,101241.80
2022-10-20T16:10:45.545Z,101233.60
2022-10-20T16:15:49.096Z,101232.80
2022-10-20T16:20:52.675Z,101235.00
2022-10-20T16:25:56.181Z,101229.00
2022-10-20T16:31:06.325Z,101222.80
2022-10-20T16:36:13.957Z,101225.80
2022-10-20T16:41:18.607Z,101221.80
2022-10-20T16:46:23.247Z,101223.00
2022-10-20T16:51:26.801Z,101224.80
2022-10-20T16:56:30.777Z,101224.20
2022-10-20T17:01:34.412Z,101218.60
2022-10-20T17:06:38.259Z,101221.00
2022-10-20T17:11:41.789Z,101223.60
2022-10-20T17:16:47.623Z,101219.60
2022-10-20T17:21:55.808Z,101211.60
2022-10-20T17:26:59.653Z,101215.00
2022-10-20T17:32:03.297Z,101225.20
2022-10-20T17:37:06.810Z,101224.80
2022-10-20T17:42:10.468Z,101225.60
2022-10-20T17:47:14.148Z,101216.20
2022-10-20T17:52:17.783Z,101210.00
2022-10-20T17:57:21.238Z,101207.40
2022-10-20T18:02:24.799Z,101201.20
2022-10-20T18:07:28.448Z,101205.40
2022-10-20T18:12:32.038Z,101197.80
2022-10-20T18:17:36.329Z,101195.20
2022-10-20T18:22:40.065Z,101195.60
2022-10-20T18:27:43.646Z,101188.00
2022-10-20T18:32:47.253Z,101183.80
2022-10-20T18:37:56.381Z,101183.40
2022-10-20T18:43:02.874Z,101188.60
2022-10-20T18:48:06.685Z,101190.40
2022-10-20T18:53:10.333Z,101187.40
2022-10-20T18:58:14.023Z,101191.60
2022-10-20T19:03:17.614Z,101186.80
2022-10-20T19:08:21.271Z,101188.00
2022-10-20T19:13:26.892Z,101189.80
2022-10-20T19:18:30.674Z,101188.20
2022-10-20T19:23:39.901Z,101182.80
2022-10-20T19:28:50.082Z,101178.20
2022-10-20T19:34:00.455Z,101165.00
2022-10-20T19:39:08.279Z,101163.80
2022-10-20T19:44:12.881Z,101161.80
2022-10-20T19:49:16.421Z,101156.60
2022-10-20T19:54:20.067Z,101158.60
2022-10-20T19:59:23.640Z,101153.80
2022-10-20T20:04:27.199Z,101150.80
2022-10-20T20:09:31.473Z,101138.20
2022-10-20T20:14:34.980Z,101132.80
2022-10-20T20:19:38.695Z,101130.20
2022-10-20T20:24:42.622Z,101133.40
2022-10-20T20:29:46.106Z,101129.40
2022-10-20T20:34:49.616Z,101123.60
2022-10-20T20:39:53.240Z,101120.40
2022-10-20T20:44:56.845Z,101113.20
2022-10-20T20:50:01.082Z,101100.20
2022-10-20T20:55:05.777Z,101084.40
2022-10-20T21:00:10.652Z,101073.20
2022-10-20T21:05:14.320Z,101065.00
2022-10-20T21:10:18.191Z,101059.60
2022-10-20T21:15:22.195Z,101054.60
2022-10-20T21:20:26.099Z,101056.60
2022-10-20T21:25:29.583Z,101053.40
2022-10-20T21:30:33.127Z,101049.00
2022-10-20T21:35:36.617Z,101052.00
2022-10-20T21:40:40.080Z,101050.60
2022-10-20T21:45:43.505Z,101043.80
2022-10-20T21:50:47.061Z,101043.40
2022-10-20T21:55:50.472Z,101020.80
2022-10-20T22:00:55.013Z,100998.00
2022-10-20T22:05:58.566Z,100989.60
2022-10-20T22:11:13.005Z,100997.00
2022-10-20T22:16:20.929Z,100994.80
2022-10-20T22:21:25.319Z,100986.40
